createdAt,value
2022-09-10T00:01:51.944Z,100546.79
2022-09-10T00:04:06.495Z,100543.39
2022-09-10T00:06:20.739Z,100538.95
2022-09-10T00:08:35.585Z,100538.63
2022-09-10T00:10:51.740Z,100535.57
2022-09-10T00:13:05.621Z,100532.70
2022-09-10T00:15:21.493Z,100534.95
2022-09-10T00:17:35.359Z,100530.74
2022-09-10T00:19:48.844Z,100532.27
2022-09-10T00:22:02.519Z,100522.04
2022-09-10T00:24:16.480Z,100519.29
2022-09-10T00:26:31.664Z,100519.06
2022-09-10T00:28:45.770Z,100517.59
2022-09-10T00:31:00.151Z,100515.77
2022-09-10T00:33:14.171Z,100521.36
2022-09-10T00:35:27.881Z,100518.51
2022-09-10T00:37:42.038Z,100516.84
2022-09-10T00:39:56.820Z,100519.60
2022-09-10T00:42:13.422Z,100518.27
2022-09-10T00:44:59.230Z,100519.94
2022-09-10T00:47:18.837Z,100521.03
2022-09-10T00:49:40.292Z,100519.64
2022-09-10T00:51:56.433Z,100523.48
2022-09-10T00:54:11.202Z,100520.52
2022-09-10T00:56:25.229Z,100521.13
2022-09-10T00:58:39.257Z,100516.42
2022-09-10T01:00:55.698Z,100512.94
2022-09-10T01:03:12.583Z,100516.15
2022-09-10T01:05:27.303Z,100510.55
2022-09-10T01:07:41.590Z,100513.42
2022-09-10T01:09:55.405Z,100510.82
2022-09-10T01:12:25.119Z,100507.80
2022-09-10T01:14:56.007Z,100508.53
2022-09-10T01:17:22.108Z,100506.36
2022-09-10T01:20:02.351Z,100506.70
2022-09-10T01:22:27.499Z,100504.98
2022-09-10T01:24:59.969Z,100507.52
2022-09-10T01:27:32.398Z,100508.46
2022-09-10T01:29:56.515Z,100510.73
2022-09-10T01:32:16.840Z,100508.74
2022-09-10T01:34:41.641Z,100507.87
2022-09-10T01:36:57.217Z,100509.89
2022-09-10T01:39:11.525Z,100509.33
2022-09-10T01:41:27.503Z,100505.09
2022-09-10T01:43:43.257Z,100506.66
2022-09-10T01:46:12.515Z,100504.77
2022-09-10T01:49:02.987Z,100502.54
2022-09-10T01:51:27.061Z,100500.38
2022-09-10T01:53:54.342Z,100501.88
2022-09-10T01:56:17.146Z,100498.97
2022-09-10T01:58:38.380Z,100500.02
2022-09-10T02:01:18.840Z,100497.20
2022-09-10T02:03:33.890Z,100494.20
2022-09-10T02:05:51.087Z,100493.55
2022-09-10T02:08:08.918Z,100492.95
2022-09-10T02:10:23.176Z,100488.31
2022-09-10T02:12:38.161Z,100491.23
2022-09-10T02:15:12.964Z,100489.95
2022-09-10T02:17:44.075Z,100494.09
2022-09-10T02:19:59.672Z,100497.77
2022-09-10T02:22:14.336Z,100493.70
2022-09-10T02:24:28.649Z,100497.32
2022-09-10T02:26:44.646Z,100497.92
2022-09-10T02:28:58.999Z,100501.99
2022-09-10T02:31:13.069Z,100503.28
2022-09-10T02:33:26.983Z,100507.61
2022-09-10T02:35:40.623Z,100509.45
2022-09-10T02:37:54.757Z,100505.77
2022-09-10T02:40:09.422Z,100505.54
2022-09-10T02:42:23.684Z,100504.23
2022-09-10T02:44:37.570Z,100504.45
2022-09-10T02:46:53.170Z,100497.52
2022-09-10T02:49:06.986Z,100495.47
2022-09-10T02:51:22.866Z,100494.32
2022-09-10T02:53:37.552Z,100497.88
2022-09-10T02:55:54.482Z,100497.67
2022-09-10T02:58:08.475Z,100495.05
2022-09-10T03:00:23.275Z,100501.56
2022-09-10T03:02:37.570Z,100502.16
2022-09-10T03:04:51.417Z,100502.84
2022-09-10T03:07:05.283Z,100501.23
2022-09-10T03:09:21.303Z,100503.59
2022-09-10T03:11:36.273Z,100503.38
2022-09-10T03:13:50.185Z,100507.16
2022-09-10T03:16:05.244Z,100505.92
2022-09-10T03:18:19.772Z,100504.61
2022-09-10T03:20:33.601Z,100504.90
2022-09-10T03:22:48.800Z,100506.48
2022-09-10T03:25:02.839Z,100508.92
2022-09-10T03:27:17.132Z,100508.75
2022-09-10T03:29:31.582Z,100513.02
2022-09-10T03:31:47.780Z,100513.14
2022-09-10T03:34:02.288Z,100515.29
2022-09-10T03:36:16.802Z,100513.20
2022-09-10T03:38:30.623Z,100514.33
2022-09-10T03:40:44.851Z,100512.09
2022-09-10T03:42:58.875Z,100517.09
2022-09-10T03:45:15.363Z,100520.71
2022-09-10T03:47:30.379Z,100524.70
2022-09-10T03:49:48.560Z,100527.20
2022-09-10T03:52:02.744Z,100526.32
2022-09-10T03:54:18.708Z,100527.21
2022-09-10T03:56:33.042Z,100532.67
2022-09-10T03:58:46.598Z,100532.17
2022-09-10T04:01:00.294Z,100537.33
2022-09-10T04:03:18.509Z,100535.77
2022-09-10T04:05:32.500Z,100532.44
2022-09-10T04:07:46.653Z,100531.73
2022-09-10T04:10:00.498Z,100532.36
2022-09-10T04:12:14.723Z,100531.03
2022-09-10T04:14:28.551Z,100532.77
2022-09-10T04:16:43.022Z,100533.63
2022-09-10T04:19:00.279Z,100531.59
2022-09-10T04:21:15.938Z,100539.11
2022-09-10T04:23:30.789Z,100537.06
2022-09-10T04:25:45.048Z,100537.92
2022-09-10T04:27:58.824Z,100539.60
2022-09-10T04:30:14.238Z,100542.59
2022-09-10T04:32:28.417Z,100539.01
2022-09-10T04:34:42.446Z,100537.42
2022-09-10T04:36:56.836Z,100538.48
2022-09-10T04:39:10.546Z,100540.09
2022-09-10T04:41:24.469Z,100541.92
2022-09-10T04:43:38.800Z,100536.30
2022-09-10T04:45:52.873Z,100536.39
2022-09-10T04:48:07.337Z,100542.28
2022-09-10T04:50:23.610Z,100541.14
2022-09-10T04:52:55.374Z,100542.79
2022-09-10T04:55:09.601Z,100539.90
2022-09-10T04:57:23.470Z,100540.75
2022-09-10T04:59:39.249Z,100540.39
2022-09-10T05:01:53.977Z,100539.36
2022-09-10T05:04:09.385Z,100538.23
2022-09-10T05:06:24.636Z,100543.91
2022-09-10T05:08:38.970Z,100537.84
2022-09-10T05:10:53.162Z,100541.10
2022-09-10T05:13:06.807Z,100538.45
2022-09-10T05:15:20.679Z,100539.33
2022-09-10T05:17:34.668Z,100538.65
2022-09-10T05:19:48.356Z,100537.61
2022-09-10T05:22:03.334Z,100542.46
2022-09-10T05:24:19.103Z,100541.52
2022-09-10T05:26:32.744Z,100542.88
2022-09-10T05:28:46.318Z,100540.14
2022-09-10T05:31:02.182Z,100541.05
2022-09-10T05:33:16.168Z,100539.91
2022-09-10T05:35:30.354Z,100539.04
2022-09-10T05:37:44.882Z,100543.33
2022-09-10T05:39:58.859Z,100543.63
2022-09-10T05:42:13.027Z,100541.92
2022-09-10T05:44:26.594Z,100542.39
2022-09-10T05:46:40.398Z,100541.48
2022-09-10T05:49:00.987Z,100540.34
2022-09-10T05:51:14.987Z,100534.06
2022-09-10T05:53:29.877Z,100524.48
2022-09-10T05:55:45.203Z,100525.08
2022-09-10T05:57:59.733Z,100525.85
2022-09-10T06:00:16.561Z,100520.26
2022-09-10T06:02:40.948Z,100526.75
2022-09-10T06:05:06.162Z,100521.92
2022-09-10T06:07:20.256Z,100514.31
2022-09-10T06:09:33.950Z,100516.40
2022-09-10T06:12:04.524Z,100510.92
2022-09-10T06:14:18.624Z,100513.98
2022-09-10T06:16:32.507Z,100509.45
2022-09-10T06:18:47.901Z,100503.84
2022-09-10T06:21:11.560Z,100503.88
2022-09-10T06:23:25.477Z,100501.69
2022-09-10T06:25:40.014Z,100498.69
2022-09-10T06:27:54.012Z,100493.21
2022-09-10T06:30:07.922Z,100495.11
2022-09-10T06:32:25.235Z,100491.98
2022-09-10T06:34:39.183Z,100487.50
2022-09-10T06:36:55.996Z,100491.71
2022-09-10T06:39:11.179Z,100485.64
2022-09-10T06:41:49.430Z,100474.56
2022-09-10T06:44:22.636Z,100474.02
2022-09-10T06:49:20.108Z,100462.51
2022-09-10T06:51:35.183Z,100461.16
2022-09-10T06:53:51.213Z,100454.21
2022-09-10T06:56:07.153Z,100451.05
2022-09-10T06:58:21.624Z,100443.86
2022-09-10T07:00:35.474Z,100445.73
2022-09-10T07:02:51.871Z,100439.31
2022-09-10T07:05:05.574Z,100445.36
2022-09-10T07:07:21.399Z,100443.73
2022-09-10T07:09:36.355Z,100439.02
2022-09-10T07:11:49.939Z,100436.92
2022-09-10T07:14:04.208Z,100437.62
2022-09-10T07:16:23.973Z,100438.26
2022-09-10T07:18:39.792Z,100433.72
2022-09-10T07:20:54.456Z,100433.20
2022-09-10T07:23:11.092Z,100437.92
2022-09-10T07:25:28.130Z,100431.67
2022-09-10T07:27:53.153Z,100427.70
2022-09-10T07:30:06.478Z,100430.96
2022-09-10T07:32:19.916Z,100422.20
2022-09-10T07:34:35.829Z,100419.64
2022-09-10T07:36:52.506Z,100420.33
2022-09-10T07:39:07.056Z,100423.89
2022-09-10T07:41:23.459Z,100423.46
2022-09-10T07:43:37.080Z,100417.45
2022-09-10T07:45:50.918Z,100417.34
2022-09-10T07:48:04.155Z,100412.21
2022-09-10T07:50:21.515Z,100425.58
2022-09-10T07:52:38.369Z,100417.95
2022-09-10T07:54:51.645Z,100412.70
2022-09-10T07:57:05.926Z,100413.70
2022-09-10T07:59:20.380Z,100410.03
2022-09-10T08:01:37.178Z,100415.89
2022-09-10T08:03:51.367Z,100408.91
2022-09-10T08:06:06.930Z,100404.88
2022-09-10T08:08:21.218Z,100408.84
2022-09-10T08:10:34.534Z,100404.02
2022-09-10T08:12:48.402Z,100392.88
2022-09-10T08:15:02.170Z,100388.77
2022-09-10T08:17:15.594Z,100373.92
2022-09-10T08:19:31.025Z,100372.75
2022-09-10T08:21:45.722Z,100368.66
2022-09-10T08:24:00.497Z,100361.60
2022-09-10T08:26:14.785Z,100359.09
2022-09-10T08:28:30.797Z,100363.95
2022-09-10T08:30:44.136Z,100357.88
2022-09-10T08:32:57.466Z,100349.25
2022-09-10T08:35:11.412Z,100343.64
2022-09-10T08:37:24.985Z,100346.24
2022-09-10T08:39:38.955Z,100342.94
2022-09-10T08:41:59.599Z,100344.86
2022-09-10T08:44:19.317Z,100338.44
2022-09-10T08:46:37.446Z,100335.91
2022-09-10T08:48:56.238Z,100326.38
2022-09-10T08:51:17.607Z,100328.45
2022-09-10T08:53:36.192Z,100323.91
2022-09-10T08:55:49.527Z,100331.26
2022-09-10T08:58:07.858Z,100325.20
2022-09-10T09:00:25.340Z,100328.48
2022-09-10T09:02:49.746Z,100314.00
2022-09-10T09:05:09.204Z,100309.99
2022-09-10T09:07:25.409Z,100303.85
2022-09-10T09:09:42.104Z,100302.17
2022-09-10T09:12:01.772Z,100292.73
2022-09-10T09:14:38.758Z,100293.16
2022-09-10T09:17:07.594Z,100294.47
2022-09-10T09:19:30.794Z,100286.38
2022-09-10T09:21:54.133Z,100288.04
2022-09-10T09:24:19.101Z,100296.67
2022-09-10T09:26:40.488Z,100288.83
2022-09-10T09:29:00.632Z,100292.34
2022-09-10T09:31:18.967Z,100292.30
2022-09-10T09:33:37.033Z,100297.56
2022-09-10T09:35:55.162Z,100291.84
2022-09-10T09:38:20.004Z,100289.17
2022-09-10T09:40:40.068Z,100282.16
2022-09-10T09:42:57.340Z,100279.27
2022-09-10T09:45:20.399Z,100280.79
2022-09-10T09:47:31.250Z,100274.67
2022-09-10T09:49:45.104Z,100280.33
2022-09-10T09:51:59.805Z,100276.51
2022-09-10T09:54:56.923Z,100277.30
2022-09-10T09:56:55.844Z,100287.20
2022-09-10T09:59:28.008Z,100269.11
2022-09-10T10:01:45.714Z,100288.70
2022-09-10T10:04:05.168Z,100293.89
2022-09-10T10:06:20.850Z,100283.13
2022-09-10T10:08:37.382Z,100284.73
2022-09-10T10:10:55.146Z,100288.36
2022-09-10T10:13:08.538Z,100290.98
2022-09-10T10:15:42.355Z,100292.82
2022-09-10T10:17:56.243Z,100294.08
2022-09-10T10:20:15.471Z,100291.70
2022-09-10T10:22:32.317Z,100295.84
2022-09-10T10:24:46.376Z,100291.63
2022-09-10T10:26:59.840Z,100281.99
2022-09-10T10:29:21.956Z,100287.92
2022-09-10T10:31:45.248Z,100282.65
2022-09-10T10:34:09.426Z,100282.05
2022-09-10T10:36:28.979Z,100279.38
2022-09-10T10:38:45.352Z,100280.42
2022-09-10T10:41:10.814Z,100277.48
2022-09-10T10:43:40.532Z,100283.98
2022-09-10T10:46:05.720Z,100290.64
2022-09-10T10:48:31.601Z,100282.93
2022-09-10T10:50:54.915Z,100279.28
2022-09-10T10:53:40.540Z,100285.36
2022-09-10T10:56:02.323Z,100286.37
2022-09-10T10:58:38.957Z,100287.55
2022-09-10T11:00:56.145Z,100281.11
2022-09-10T11:03:19.048Z,100285.05
2022-09-10T11:05:35.915Z,100280.99
2022-09-10T11:07:50.314Z,100277.85
2022-09-10T11:10:08.093Z,100282.98
2022-09-10T11:12:29.547Z,100282.44
2022-09-10T11:14:49.893Z,100281.74
2022-09-10T11:17:08.338Z,100281.91
2022-09-10T11:19:28.156Z,100275.88
2022-09-10T11:21:47.124Z,100275.48
2022-09-10T11:24:05.818Z,100278.58
2022-09-10T11:26:24.038Z,100271.50
2022-09-10T11:28:40.101Z,100274.75
2022-09-10T11:30:58.998Z,100277.80
2022-09-10T11:33:20.106Z,100274.08
2022-09-10T11:35:38.098Z,100266.66
2022-09-10T11:38:00.128Z,100275.55
2022-09-10T11:40:21.915Z,100275.83
2022-09-10T11:42:42.238Z,100276.52
2022-09-10T11:45:05.970Z,100274.85
2022-09-10T11:47:25.679Z,100273.97
2022-09-10T11:49:52.332Z,100273.90
2022-09-10T11:52:06.147Z,100280.36
2022-09-10T11:54:22.291Z,100271.30
2022-09-10T11:56:47.390Z,100265.90
2022-09-10T11:59:17.609Z,100266.16
2022-09-10T12:01:50.611Z,100274.50
2022-09-10T12:04:20.056Z,100275.04
2022-09-10T12:06:40.722Z,100270.98
2022-09-10T12:09:06.821Z,100268.82
2022-09-10T12:11:30.809Z,100273.30
2022-09-10T12:13:46.809Z,100268.98
2022-09-10T12:16:04.030Z,100267.19
2022-09-10T12:18:24.591Z,100269.57
2022-09-10T12:20:43.383Z,100272.84
2022-09-10T12:23:00.213Z,100271.38
2022-09-10T12:25:30.462Z,100269.45
2022-09-10T12:27:54.781Z,100267.35
2022-09-10T12:30:43.725Z,100270.03
2022-09-10T12:32:58.990Z,100268.63
2022-09-10T12:35:40.569Z,100269.10
2022-09-10T12:37:54.229Z,100263.09
2022-09-10T12:40:39.707Z,100260.73
2022-09-10T12:42:53.173Z,100265.27
2022-09-10T12:45:06.561Z,100274.38
2022-09-10T12:47:53.868Z,100269.09
2022-09-10T12:50:10.211Z,100266.52
2022-09-10T12:52:32.868Z,100272.90
2022-09-10T12:54:55.500Z,100268.92
2022-09-10T12:57:35.404Z,100267.63
2022-09-10T13:00:15.092Z,100263.17
2022-09-10T13:02:36.181Z,100262.22
2022-09-10T13:04:56.691Z,100269.39
2022-09-10T13:07:27.565Z,100269.93
2022-09-10T13:09:43.397Z,100262.52
2022-09-10T13:11:58.770Z,100266.45
2022-09-10T13:14:20.394Z,100264.58
2022-09-10T13:16:46.392Z,100268.46
2022-09-10T13:19:20.739Z,100269.47
2022-09-10T13:21:58.757Z,100270.39
2022-09-10T13:24:49.923Z,100265.65
2022-09-10T13:27:22.047Z,100277.10
2022-09-10T13:29:38.493Z,100270.41
2022-09-10T13:31:59.082Z,100273.30
2022-09-10T13:34:32.612Z,100276.70
2022-09-10T13:36:57.211Z,100267.31
2022-09-10T13:39:49.573Z,100275.27
2022-09-10T13:42:14.866Z,100272.89
2022-09-10T13:44:48.368Z,100273.11
2022-09-10T13:47:07.701Z,100271.83
2022-09-10T13:49:26.371Z,100276.86
2022-09-10T13:51:45.391Z,100277.30
2022-09-10T13:54:00.929Z,100275.08
2022-09-10T13:56:20.045Z,100277.14
2022-09-10T13:58:38.537Z,100285.09
2022-09-10T14:00:59.096Z,100283.25
2022-09-10T14:03:24.327Z,100290.52
2022-09-10T14:05:45.236Z,100281.34
2022-09-10T14:08:01.382Z,100283.45
2022-09-10T14:10:15.169Z,100284.27
2022-09-10T14:12:31.144Z,100288.33
2022-09-10T14:14:46.996Z,100289.16
2022-09-10T14:17:03.154Z,100294.02
2022-09-10T14:19:23.500Z,100290.75
2022-09-10T14:21:37.526Z,100290.54
2022-09-10T14:23:55.291Z,100291.25
2022-09-10T14:26:24.504Z,100294.80
2022-09-10T14:28:38.681Z,100300.99
2022-09-10T14:30:54.081Z,100298.02
2022-09-10T14:33:32.563Z,100295.92
2022-09-10T14:35:48.048Z,100298.73
2022-09-10T14:38:05.421Z,100302.29
2022-09-10T14:40:25.812Z,100305.77
2022-09-10T14:42:40.544Z,100306.81
2022-09-10T14:44:53.904Z,100311.42
2022-09-10T14:47:26.271Z,100310.63
2022-09-10T14:49:42.623Z,100312.84
2022-09-10T14:51:56.024Z,100305.34
2022-09-10T14:54:09.368Z,100313.53
2022-09-10T14:56:34.656Z,100318.42
2022-09-10T14:58:47.995Z,100314.88
2022-09-10T15:01:01.667Z,100327.19
2022-09-10T15:03:20.161Z,100324.99
2022-09-10T15:05:33.897Z,100326.92
2022-09-10T15:07:47.217Z,100325.48
2022-09-10T15:10:00.421Z,100331.26
2022-09-10T15:12:16.601Z,100333.39
2022-09-10T15:14:30.733Z,100326.61
2022-09-10T15:16:44.203Z,100337.84
2022-09-10T15:18:57.649Z,100341.66
2022-09-10T15:21:13.649Z,100337.61
2022-09-10T15:23:26.912Z,100340.19
2022-09-10T15:25:44.690Z,100338.04
2022-09-10T15:27:57.855Z,100341.77
2022-09-10T15:30:12.604Z,100341.03
2022-09-10T15:32:25.829Z,100343.02
2022-09-10T15:34:39.009Z,100344.08
2022-09-10T15:36:54.242Z,100343.33
2022-09-10T15:39:08.162Z,100341.59
2022-09-10T15:41:21.678Z,100346.36
2022-09-10T15:43:39.423Z,100351.38
2022-09-10T15:45:53.068Z,100352.04
2022-09-10T15:48:07.763Z,100355.44
2022-09-10T15:50:21.182Z,100350.29
2022-09-10T15:52:34.613Z,100348.23
2022-09-10T15:54:48.061Z,100345.27
2022-09-10T15:57:02.382Z,100344.92
2022-09-10T15:59:17.703Z,100345.05
2022-09-10T16:01:32.155Z,100343.58
2022-09-10T16:03:47.829Z,100347.14
2022-09-10T16:06:05.456Z,100352.40
2022-09-10T16:08:18.745Z,100352.73
2022-09-10T16:10:32.205Z,100354.52
2022-09-10T16:12:45.425Z,100351.98
2022-09-10T16:14:58.787Z,100358.14
2022-09-10T16:17:12.496Z,100355.75
2022-09-10T16:19:25.816Z,100355.94
2022-09-10T16:21:41.021Z,100364.86
2022-09-10T16:23:55.528Z,100364.06
2022-09-10T16:26:09.226Z,100364.17
2022-09-10T16:28:22.725Z,100366.16
2022-09-10T16:30:36.329Z,100370.42
2022-09-10T16:32:49.830Z,100372.45
2022-09-10T16:35:05.353Z,100377.54
2022-09-10T16:37:18.483Z,100379.79
2022-09-10T16:39:32.475Z,100382.70
2022-09-10T16:41:46.856Z,100383.22
2022-09-10T16:44:01.741Z,100388.67
2022-09-10T16:46:16.150Z,100392.27
2022-09-10T16:48:29.451Z,100394.05
2022-09-10T16:50:42.769Z,100400.08
2022-09-10T16:52:56.717Z,100401.17
2022-09-10T16:55:10.554Z,100406.61
2022-09-10T16:57:23.825Z,100405.84
2022-09-10T16:59:37.776Z,100413.73
2022-09-10T17:01:52.855Z,100417.55
2022-09-10T17:04:08.034Z,100419.42
2022-09-10T17:06:26.016Z,100422.13
2022-09-10T17:08:40.310Z,100427.79
2022-09-10T17:10:53.658Z,100429.84
2022-09-10T17:13:07.265Z,100428.92
2022-09-10T17:15:20.681Z,100430.68
2022-09-10T17:17:34.344Z,100433.41
2022-09-10T17:19:48.080Z,100436.33
2022-09-10T17:22:01.952Z,100439.55
2022-09-10T17:24:16.743Z,100443.73
2022-09-10T17:26:30.198Z,100448.85
2022-09-10T17:28:44.230Z,100454.85
2022-09-10T17:31:01.339Z,100456.05
2022-09-10T17:33:14.668Z,100459.54
2022-09-10T17:35:28.119Z,100459.91
2022-09-10T17:37:41.987Z,100460.34
2022-09-10T17:39:55.323Z,100460.79
2022-09-10T17:42:08.767Z,100461.95
2022-09-10T17:44:22.112Z,100468.58
2022-09-10T17:46:36.652Z,100468.16
2022-09-10T17:48:50.028Z,100470.99
2022-09-10T17:51:03.494Z,100470.89
2022-09-10T17:53:16.920Z,100472.63
2022-09-10T17:55:33.522Z,100473.19
2022-09-10T17:57:46.958Z,100472.41
2022-09-10T18:00:00.175Z,100473.88
2022-09-10T18:02:16.645Z,100468.51
2022-09-10T18:04:29.998Z,100465.65
2022-09-10T18:06:46.911Z,100464.48
2022-09-10T18:09:03.997Z,100466.50
2022-09-10T18:11:19.881Z,100470.02
2022-09-10T18:13:33.264Z,100469.80
2022-09-10T18:15:48.201Z,100475.46
2022-09-10T18:18:02.646Z,100473.93
2022-09-10T18:20:16.555Z,100470.32
2022-09-10T18:22:30.439Z,100472.92
2022-09-10T18:24:43.838Z,100477.06
2022-09-10T18:26:58.549Z,100479.37
2022-09-10T18:29:15.424Z,100484.92
2022-09-10T18:31:30.540Z,100484.14
2022-09-10T18:33:45.047Z,100488.45
2022-09-10T18:35:58.222Z,100487.23
2022-09-10T18:38:11.568Z,100489.09
2022-09-10T18:40:25.250Z,100488.68
2022-09-10T18:42:38.596Z,100485.97
2022-09-10T18:44:51.832Z,100487.88
2022-09-10T18:47:17.796Z,100486.05
2022-09-10T18:49:40.248Z,100489.40
2022-09-10T18:51:54.044Z,100492.83
2022-09-10T18:54:07.927Z,100500.50
2022-09-10T18:56:22.956Z,100500.88
2022-09-10T18:58:37.177Z,100504.56
2022-09-10T19:00:50.566Z,100502.42
2022-09-10T19:03:03.956Z,100506.11
2022-09-10T19:05:17.456Z,100506.46
2022-09-10T19:07:30.895Z,100507.11
2022-09-10T19:09:44.496Z,100506.95
2022-09-10T19:11:58.706Z,100511.65
2022-09-10T19:14:17.231Z,100515.52
2022-09-10T19:16:31.771Z,100517.28
2022-09-10T19:18:45.173Z,100521.66
2022-09-10T19:20:58.631Z,100523.45
2022-09-10T19:23:12.355Z,100525.98
2022-09-10T19:25:25.953Z,100527.00
2022-09-10T19:27:39.455Z,100532.39
2022-09-10T19:29:53.132Z,100530.79
2022-09-10T19:32:07.785Z,100534.27
2022-09-10T19:34:22.713Z,100537.95
2022-09-10T19:36:37.106Z,100537.30
2022-09-10T19:38:50.564Z,100541.46
2022-09-10T19:41:12.079Z,100541.08
2022-09-10T19:43:25.450Z,100544.90
2022-09-10T19:45:38.868Z,100549.03
2022-09-10T19:47:52.206Z,100550.86
2022-09-10T19:50:07.073Z,100553.77
2022-09-10T19:52:20.496Z,100554.57
2022-09-10T19:54:33.998Z,100558.48
2022-09-10T19:56:48.043Z,100561.55
2022-09-10T19:59:03.654Z,100566.13
2022-09-10T20:01:18.305Z,100571.39
2022-09-10T20:03:31.593Z,100572.29
2022-09-10T20:05:45.716Z,100575.58
2022-09-10T20:07:59.165Z,100581.70
2022-09-10T20:10:13.510Z,100583.14
2022-09-10T20:12:26.887Z,100589.04
2022-09-10T20:14:41.086Z,100601.23
2022-09-10T20:16:55.916Z,100607.44
2022-09-10T20:19:12.087Z,100622.48
2022-09-10T20:21:26.730Z,100631.02
2022-09-10T20:23:42.246Z,100636.91
2022-09-10T20:25:55.751Z,100646.80
2022-09-10T20:28:09.337Z,100647.73
2022-09-10T20:30:23.169Z,100655.02
2022-09-10T20:32:36.392Z,100658.55
2022-09-10T20:34:49.656Z,100670.42
2022-09-10T20:37:03.004Z,100670.48
2022-09-10T20:39:18.914Z,100673.98
2022-09-10T20:41:33.059Z,100681.60
2022-09-10T20:43:46.642Z,100685.05
2022-09-10T20:46:00.189Z,100684.39
2022-09-10T20:48:13.425Z,100689.14
2022-09-10T20:50:27.916Z,100680.55
2022-09-10T20:52:41.199Z,100684.59
2022-09-10T20:54:54.509Z,100685.02
2022-09-10T20:57:08.649Z,100692.71
2022-09-10T20:59:26.959Z,100690.98
2022-09-10T21:01:45.259Z,100692.67
2022-09-10T21:04:01.258Z,100694.34
2022-09-10T21:06:15.368Z,100694.08
2022-09-10T21:08:28.819Z,100700.13
2022-09-10T21:10:43.329Z,100703.16
2022-09-10T21:12:56.710Z,100694.69
2022-09-10T21:15:10.628Z,100691.84
2022-09-10T21:17:23.963Z,100692.97
2022-09-10T21:19:37.279Z,100693.20
2022-09-10T21:21:51.831Z,100697.14
2022-09-10T21:24:06.610Z,100698.72
2022-09-10T21:26:21.919Z,100702.11
2022-09-10T21:28:36.628Z,100703.48
2022-09-10T21:30:50.364Z,100708.13
2022-09-10T21:33:03.671Z,100708.52
2022-09-10T21:35:17.612Z,100710.11
2022-09-10T21:37:31.017Z,100710.27
2022-09-10T21:39:44.985Z,100715.30
2022-09-10T21:41:58.577Z,100712.73
2022-09-10T21:44:15.354Z,100710.84
2022-09-10T21:46:29.144Z,100715.84
2022-09-10T21:48:43.376Z,100720.89
2022-09-10T21:51:06.426Z,100723.13
2022-09-10T21:53:20.893Z,100728.06
2022-09-10T21:55:34.125Z,100727.90
2022-09-10T21:57:47.752Z,100737.20
2022-09-10T22:00:01.320Z,100740.18
2022-09-10T22:02:15.176Z,100737.91
2022-09-10T22:04:28.699Z,100740.95
2022-09-10T22:06:42.037Z,100741.73
2022-09-10T22:08:59.290Z,100746.01
2022-09-10T22:11:15.576Z,100745.77
2022-09-10T22:13:29.669Z,100746.75
2022-09-10T22:15:46.548Z,100753.57
2022-09-10T22:18:01.203Z,100757.88
2022-09-10T22:20:15.563Z,100767.15
2022-09-10T22:22:29.296Z,100767.16
2022-09-10T22:24:42.661Z,100768.75
2022-09-10T22:26:56.254Z,100773.54
2022-09-10T22:29:09.640Z,100779.93
2022-09-10T22:31:25.155Z,100777.30
2022-09-10T22:33:39.299Z,100780.06
2022-09-10T22:35:53.103Z,100784.79
2022-09-10T22:38:06.373Z,100787.34
2022-09-10T22:40:19.860Z,100790.95
2022-09-10T22:42:33.394Z,100794.48
2022-09-10T22:44:46.650Z,100793.48
2022-09-10T22:47:01.046Z,100797.92
2022-09-10T22:49:16.633Z,100800.85
2022-09-10T22:51:31.196Z,100800.95
2022-09-10T22:53:45.471Z,100794.42
2022-09-10T22:55:59.620Z,100798.20
2022-09-10T22:58:13.611Z,100798.70
2022-09-10T23:00:27.819Z,100794.97
2022-09-10T23:02:41.079Z,100793.38
2022-09-10T23:04:54.409Z,100793.42
2022-09-10T23:07:08.149Z,100789.71
2022-09-10T23:09:21.917Z,100793.13
2022-09-10T23:11:36.389Z,100791.06
2022-09-10T23:13:51.231Z,100790.08
2022-09-10T23:16:04.620Z,100788.95
2022-09-10T23:18:18.203Z,100789.16
2022-09-10T23:20:32.197Z,100788.68
2022-09-10T23:22:45.540Z,100787.40
2022-09-10T23:24:59.451Z,100791.80
2022-09-10T23:27:13.028Z,100794.83
2022-09-10T23:29:26.487Z,100793.84
2022-09-10T23:31:42.003Z,100789.42
2022-09-10T23:34:00.525Z,100788.84
2022-09-10T23:36:14.769Z,100789.30
2022-09-10T23:38:28.851Z,100791.83
2022-09-10T23:40:42.388Z,100795.98
2022-09-10T23:42:55.717Z,100801.20
2022-09-10T23:45:09.772Z,100806.60
2022-09-10T23:47:22.984Z,100806.33
2022-09-10T23:49:36.721Z,100801.88
2022-09-10T23:51:50.195Z,100800.14
2022-09-10T23:54:03.941Z,100801.73
2022-09-10T23:56:18.351Z,100805.05
2022-09-10T23:58:32.040Z,100807.38
